Terminal Aerodrome Forecast
Issued by NWS Wichita, KS

Home | Current Version | Previous Version | Text Only | Print | Product List | Glossary On
Versions: 1 2 3 4 5 6 7 8 9 10 11 12 13 14 15 16 17 18 19 20 21 22 23 24 25
000
FTUS43 KICT 171748 CCA
TAFICT
TAF COR
KICT 171748Z 1718/1818 20017G22KT P6SM SCT015
     FM172000 21017KT P6SM BKN250
     FM172300 19009KT P6SM BKN250
     FM180200 18004KT P6SM BKN180
     FM180600 34009KT P6SM SKC
     FM180800 34022G26KT P6SM OVC012=

USA.gov is the U.S. government's official web portal to all federal, state and local government web resources and services.